sensor_id;sensor_type;location;lat;lon;timestamp;pressure;altitude;pressure_sealevel;temperature;humidity
75172;BME280;63750;52.418;20.742;2023-02-12T00:01:23;101949.35;;;4.58;63.13
75172;BME280;63750;52.418;20.742;2023-02-12T00:03:52;101952.34;;;4.58;63.58
75172;BME280;63750;52.418;20.742;2023-02-12T00:06:21;101951.47;;;4.58;63.12
75172;BME280;63750;52.418;20.742;2023-02-12T00:08:51;101950.67;;;4.56;63.08
75172;BME280;63750;52.418;20.742;2023-02-12T00:11:22;101967.80;;;4.58;63.09
75172;BME280;63750;52.418;20.742;2023-02-12T00:13:52;101973.74;;;4.58;63.04
75172;BME280;63750;52.418;20.742;2023-02-12T00:16:23;101974.48;;;4.57;62.99
75172;BME280;63750;52.418;20.742;2023-02-12T00:18:54;101988.04;;;4.60;63.11
75172;BME280;63750;52.418;20.742;2023-02-12T00:21:23;101992.92;;;4.66;63.11
75172;BME280;63750;52.418;20.742;2023-02-12T00:23:52;101996.79;;;4.71;63.18
75172;BME280;63750;52.418;20.742;2023-02-12T00:26:21;102003.23;;;4.72;62.78
75172;BME280;63750;52.418;20.742;2023-02-12T00:28:51;102011.37;;;4.75;62.81
75172;BME280;63750;52.418;20.742;2023-02-12T00:31:21;102013.75;;;4.76;62.84
75172;BME280;63750;52.418;20.742;2023-02-12T00:33:51;102017.45;;;4.76;62.62
75172;BME280;63750;52.418;20.742;2023-02-12T00:36:22;102015.67;;;4.73;62.39
75172;BME280;63750;52.418;20.742;2023-02-12T00:38:51;102021.16;;;4.71;62.79
75172;BME280;63750;52.418;20.742;2023-02-12T00:41:21;102020.60;;;4.72;62.20
75172;BME280;63750;52.418;20.742;2023-02-12T00:43:50;102024.50;;;4.71;62.27
75172;BME280;63750;52.418;20.742;2023-02-12T00:46:19;102024.44;;;4.69;62.11
75172;BME280;63750;52.418;20.742;2023-02-12T00:48:48;102030.75;;;4.69;61.77
75172;BME280;63750;52.418;20.742;2023-02-12T00:51:17;102034.86;;;4.67;62.10
75172;BME280;63750;52.418;20.742;2023-02-12T00:53:45;102036.20;;;4.64;61.66
75172;BME280;63750;52.418;20.742;2023-02-12T00:56:14;102044.17;;;4.67;62.01
75172;BME280;63750;52.418;20.742;2023-02-12T00:58:42;102043.71;;;4.69;61.78
75172;BME280;63750;52.418;20.742;2023-02-12T01:01:11;102044.34;;;4.72;61.76
75172;BME280;63750;52.418;20.742;2023-02-12T01:03:40;102053.84;;;4.71;61.12
75172;BME280;63750;52.418;20.742;2023-02-12T01:06:09;102060.02;;;4.70;61.47
75172;BME280;63750;52.418;20.742;2023-02-12T01:08:38;102050.33;;;4.71;61.37
75172;BME280;63750;52.418;20.742;2023-02-12T01:11:07;102058.20;;;4.72;61.43
75172;BME280;63750;52.418;20.742;2023-02-12T01:13:36;102059.88;;;4.74;61.34
75172;BME280;63750;52.418;20.742;2023-02-12T01:16:07;102056.65;;;4.75;61.27
75172;BME280;63750;52.418;20.742;2023-02-12T01:18:37;102068.64;;;4.74;60.88
75172;BME280;63750;52.418;20.742;2023-02-12T01:21:11;102072.11;;;4.75;61.28
75172;BME280;63750;52.418;20.742;2023-02-12T01:23:41;102073.89;;;4.75;61.03
75172;BME280;63750;52.418;20.742;2023-02-12T01:26:11;102079.36;;;4.74;61.21
75172;BME280;63750;52.418;20.742;2023-02-12T01:28:40;102076.09;;;4.72;60.95
75172;BME280;63750;52.418;20.742;2023-02-12T01:31:12;102076.30;;;4.71;60.80
75172;BME280;63750;52.418;20.742;2023-02-12T01:33:41;102086.91;;;4.69;60.68
75172;BME280;63750;52.418;20.742;2023-02-12T01:36:11;102102.59;;;4.68;61.06
75172;BME280;63750;52.418;20.742;2023-02-12T01:38:40;102105.15;;;4.65;60.73
75172;BME280;63750;52.418;20.742;2023-02-12T01:41:10;102099.99;;;4.61;60.69
75172;BME280;63750;52.418;20.742;2023-02-12T01:43:39;102113.95;;;4.59;60.75
75172;BME280;63750;52.418;20.742;2023-02-12T01:46:10;102106.42;;;4.59;60.93
75172;BME280;63750;52.418;20.742;2023-02-12T01:48:41;102104.73;;;4.57;60.80
75172;BME280;63750;52.418;20.742;2023-02-12T01:51:14;102110.63;;;4.54;60.84
75172;BME280;63750;52.418;20.742;2023-02-12T01:53:46;102127.04;;;4.56;61.30
75172;BME280;63750;52.418;20.742;2023-02-12T01:56:16;102133.73;;;4.65;61.57
75172;BME280;63750;52.418;20.742;2023-02-12T01:58:46;102138.85;;;4.75;60.81
75172;BME280;63750;52.418;20.742;2023-02-12T02:01:20;102130.19;;;4.76;60.04
75172;BME280;63750;52.418;20.742;2023-02-12T02:03:53;102126.64;;;4.67;60.21
75172;BME280;63750;52.418;20.742;2023-02-12T02:06:26;102133.80;;;4.59;59.91
75172;BME280;63750;52.418;20.742;2023-02-12T02:08:57;102140.20;;;4.51;59.85
75172;BME280;63750;52.418;20.742;2023-02-12T02:11:26;102142.38;;;4.45;59.93
75172;BME280;63750;52.418;20.742;2023-02-12T02:13:55;102147.52;;;4.39;59.67
75172;BME280;63750;52.418;20.742;2023-02-12T02:16:27;102148.43;;;4.32;59.74
75172;BME280;63750;52.418;20.742;2023-02-12T02:19:00;102149.00;;;4.27;59.84
75172;BME280;63750;52.418;20.742;2023-02-12T02:24:55;102156.79;;;4.19;59.86
75172;BME280;63750;52.418;20.742;2023-02-12T02:27:41;102172.98;;;4.18;60.16
75172;BME280;63750;52.418;20.742;2023-02-12T02:33:08;102186.89;;;4.22;60.59
75172;BME280;63750;52.418;20.742;2023-02-12T02:35:42;102185.61;;;4.23;60.39
75172;BME280;63750;52.418;20.742;2023-02-12T02:38:21;102195.02;;;4.25;60.61
75172;BME280;63750;52.418;20.742;2023-02-12T02:40:57;102204.60;;;4.27;60.51
75172;BME280;63750;52.418;20.742;2023-02-12T02:43:33;102211.23;;;4.29;60.64
75172;BME280;63750;52.418;20.742;2023-02-12T02:46:07;102208.19;;;4.30;60.45
75172;BME280;63750;52.418;20.742;2023-02-12T02:48:39;102216.83;;;4.33;60.35
75172;BME280;63750;52.418;20.742;2023-02-12T02:51:11;102225.60;;;4.34;60.47
75172;BME280;63750;52.418;20.742;2023-02-12T02:53:44;102237.86;;;4.34;60.35
75172;BME280;63750;52.418;20.742;2023-02-12T02:56:16;102241.53;;;4.35;60.66
75172;BME280;63750;52.418;20.742;2023-02-12T02:58:50;102246.64;;;4.30;60.57
75172;BME280;63750;52.418;20.742;2023-02-12T03:01:22;102253.10;;;4.30;60.87
75172;BME280;63750;52.418;20.742;2023-02-12T03:03:58;102261.25;;;4.28;61.14
75172;BME280;63750;52.418;20.742;2023-02-12T03:06:35;102265.48;;;4.28;60.91
75172;BME280;63750;52.418;20.742;2023-02-12T03:09:11;102268.95;;;4.29;60.96
75172;BME280;63750;52.418;20.742;2023-02-12T03:11:42;102268.59;;;4.29;61.25
75172;BME280;63750;52.418;20.742;2023-02-12T03:14:15;102264.57;;;4.33;61.10
75172;BME280;63750;52.418;20.742;2023-02-12T03:16:50;102270.52;;;4.34;61.01
75172;BME280;63750;52.418;20.742;2023-02-12T03:19:22;102276.46;;;4.34;61.22
75172;BME280;63750;52.418;20.742;2023-02-12T03:21:56;102281.61;;;4.38;61.31
75172;BME280;63750;52.418;20.742;2023-02-12T03:24:30;102280.00;;;4.44;61.30
75172;BME280;63750;52.418;20.742;2023-02-12T03:27:05;102285.13;;;4.48;61.25
75172;BME280;63750;52.418;20.742;2023-02-12T03:29:35;102288.92;;;4.50;61.20
75172;BME280;63750;52.418;20.742;2023-02-12T03:32:14;102290.83;;;4.51;60.95
75172;BME280;63750;52.418;20.742;2023-02-12T03:34:49;102286.23;;;4.52;60.65
75172;BME280;63750;52.418;20.742;2023-02-12T03:37:21;102289.55;;;4.52;60.69
75172;BME280;63750;52.418;20.742;2023-02-12T03:39:57;102298.96;;;4.55;60.68
75172;BME280;63750;52.418;20.742;2023-02-12T03:42:37;102313.28;;;4.57;60.46
75172;BME280;63750;52.418;20.742;2023-02-12T03:45:15;102322.21;;;4.58;60.77
75172;BME280;63750;52.418;20.742;2023-02-12T03:47:50;102332.13;;;4.60;60.96
75172;BME280;63750;52.418;20.742;2023-02-12T03:50:29;102333.10;;;4.57;60.68
75172;BME280;63750;52.418;20.742;2023-02-12T03:53:00;102333.13;;;4.56;60.61
75172;BME280;63750;52.418;20.742;2023-02-12T03:55:30;102342.41;;;4.57;60.63
75172;BME280;63750;52.418;20.742;2023-02-12T03:58:01;102342.85;;;4.59;60.61
75172;BME280;63750;52.418;20.742;2023-02-12T04:00:31;102348.47;;;4.59;60.60
75172;BME280;63750;52.418;20.742;2023-02-12T04:03:00;102351.69;;;4.58;60.69
75172;BME280;63750;52.418;20.742;2023-02-12T04:05:29;102353.40;;;4.59;60.79
75172;BME280;63750;52.418;20.742;2023-02-12T04:07:59;102353.63;;;4.58;60.62
75172;BME280;63750;52.418;20.742;2023-02-12T04:10:33;102356.81;;;4.57;60.73
75172;BME280;63750;52.418;20.742;2023-02-12T04:13:14;102353.80;;;4.57;61.05
75172;BME280;63750;52.418;20.742;2023-02-12T04:15:54;102360.74;;;4.60;60.91
75172;BME280;63750;52.418;20.742;2023-02-12T04:18:27;102364.02;;;4.62;60.99
75172;BME280;63750;52.418;20.742;2023-02-12T04:21:05;102358.34;;;4.64;61.30
75172;BME280;63750;52.418;20.742;2023-02-12T04:23:43;102362.48;;;4.66;61.30
75172;BME280;63750;52.418;20.742;2023-02-12T04:26:20;102364.83;;;4.70;60.95
75172;BME280;63750;52.418;20.742;2023-02-12T04:28:58;102363.70;;;4.72;60.78
75172;BME280;63750;52.418;20.742;2023-02-12T04:31:35;102370.83;;;4.74;61.25
75172;BME280;63750;52.418;20.742;2023-02-12T04:34:10;102371.63;;;4.76;60.98
75172;BME280;63750;52.418;20.742;2023-02-12T04:36:44;102373.53;;;4.76;60.86
75172;BME280;63750;52.418;20.742;2023-02-12T04:39:20;102375.64;;;4.77;60.64
75172;BME280;63750;52.418;20.742;2023-02-12T04:41:50;102374.61;;;4.76;60.42
75172;BME280;63750;52.418;20.742;2023-02-12T04:44:21;102378.45;;;4.76;60.77
75172;BME280;63750;52.418;20.742;2023-02-12T04:46:51;102379.67;;;4.77;60.66
75172;BME280;63750;52.418;20.742;2023-02-12T04:49:21;102382.81;;;4.77;60.26
75172;BME280;63750;52.418;20.742;2023-02-12T04:51:50;102391.23;;;4.78;60.55
75172;BME280;63750;52.418;20.742;2023-02-12T04:54:20;102395.34;;;4.76;60.37
75172;BME280;63750;52.418;20.742;2023-02-12T04:56:49;102398.50;;;4.76;60.41
75172;BME280;63750;52.418;20.742;2023-02-12T04:59:18;102407.98;;;4.71;59.89
75172;BME280;63750;52.418;20.742;2023-02-12T05:01:47;102413.06;;;4.71;59.95
75172;BME280;63750;52.418;20.742;2023-02-12T05:04:17;102416.55;;;4.72;59.68
75172;BME280;63750;52.418;20.742;2023-02-12T05:06:46;102418.82;;;4.72;60.13
75172;BME280;63750;52.418;20.742;2023-02-12T05:09:16;102419.98;;;4.74;60.06
75172;BME280;63750;52.418;20.742;2023-02-12T05:11:46;102428.63;;;4.78;59.60
75172;BME280;63750;52.418;20.742;2023-02-12T05:14:15;102441.31;;;4.77;59.20
75172;BME280;63750;52.418;20.742;2023-02-12T05:16:44;102442.18;;;4.77;58.94
75172;BME280;63750;52.418;20.742;2023-02-12T05:19:12;102438.17;;;4.76;59.05
75172;BME280;63750;52.418;20.742;2023-02-12T05:21:41;102436.96;;;4.75;58.76
75172;BME280;63750;52.418;20.742;2023-02-12T05:24:10;102440.88;;;4.75;58.93
75172;BME280;63750;52.418;20.742;2023-02-12T05:26:39;102444.05;;;4.74;58.88
75172;BME280;63750;52.418;20.742;2023-02-12T05:29:08;102452.69;;;4.73;58.95
75172;BME280;63750;52.418;20.742;2023-02-12T05:31:36;102458.67;;;4.73;58.55
75172;BME280;63750;52.418;20.742;2023-02-12T05:34:07;102461.85;;;4.72;58.55
75172;BME280;63750;52.418;20.742;2023-02-12T05:36:37;102463.33;;;4.70;58.73
75172;BME280;63750;52.418;20.742;2023-02-12T05:39:07;102465.62;;;4.69;58.65
75172;BME280;63750;52.418;20.742;2023-02-12T05:41:35;102469.33;;;4.69;58.76
75172;BME280;63750;52.418;20.742;2023-02-12T05:44:05;102480.83;;;4.66;58.73
75172;BME280;63750;52.418;20.742;2023-02-12T05:46:33;102488.23;;;4.65;58.29
75172;BME280;63750;52.418;20.742;2023-02-12T05:49:02;102485.25;;;4.65;58.51
75172;BME280;63750;52.418;20.742;2023-02-12T05:51:31;102486.45;;;4.65;58.35
75172;BME280;63750;52.418;20.742;2023-02-12T05:54:01;102486.77;;;4.66;58.31
75172;BME280;63750;52.418;20.742;2023-02-12T05:56:32;102487.81;;;4.67;58.52
75172;BME280;63750;52.418;20.742;2023-02-12T05:59:03;102500.24;;;4.68;58.69
75172;BME280;63750;52.418;20.742;2023-02-12T06:01:33;102505.85;;;4.69;58.42
75172;BME280;63750;52.418;20.742;2023-02-12T06:04:04;102510.26;;;4.68;57.99
75172;BME280;63750;52.418;20.742;2023-02-12T06:06:33;102515.87;;;4.68;58.18
75172;BME280;63750;52.418;20.742;2023-02-12T06:09:02;102522.75;;;4.67;57.99
75172;BME280;63750;52.418;20.742;2023-02-12T06:11:31;102530.20;;;4.64;58.01
75172;BME280;63750;52.418;20.742;2023-02-12T06:14:02;102533.41;;;4.62;57.80
75172;BME280;63750;52.418;20.742;2023-02-12T06:16:31;102533.79;;;4.61;57.78
75172;BME280;63750;52.418;20.742;2023-02-12T06:19:02;102536.08;;;4.61;57.71
75172;BME280;63750;52.418;20.742;2023-02-12T06:21:32;102540.98;;;4.61;57.99
75172;BME280;63750;52.418;20.742;2023-02-12T06:24:00;102540.13;;;4.61;57.73
75172;BME280;63750;52.418;20.742;2023-02-12T06:26:29;102541.55;;;4.60;57.62
75172;BME280;63750;52.418;20.742;2023-02-12T06:28:58;102544.05;;;4.59;57.56
75172;BME280;63750;52.418;20.742;2023-02-12T06:31:28;102552.54;;;4.57;57.74
75172;BME280;63750;52.418;20.742;2023-02-12T06:33:59;102557.30;;;4.56;57.49
75172;BME280;63750;52.418;20.742;2023-02-12T06:36:29;102558.34;;;4.57;57.67
75172;BME280;63750;52.418;20.742;2023-02-12T06:38:59;102561.23;;;4.59;57.33
75172;BME280;63750;52.418;20.742;2023-02-12T06:41:27;102564.86;;;4.61;57.12
75172;BME280;63750;52.418;20.742;2023-02-12T06:43:57;102562.85;;;4.65;56.84
75172;BME280;63750;52.418;20.742;2023-02-12T06:46:26;102565.92;;;4.68;57.18
75172;BME280;63750;52.418;20.742;2023-02-12T06:48:57;102568.64;;;4.71;56.71
75172;BME280;63750;52.418;20.742;2023-02-12T06:51:28;102571.35;;;4.74;56.78
75172;BME280;63750;52.418;20.742;2023-02-12T06:53:57;102572.45;;;4.78;56.78
75172;BME280;63750;52.418;20.742;2023-02-12T06:56:27;102575.71;;;4.81;56.37
75172;BME280;63750;52.418;20.742;2023-02-12T06:58:57;102578.92;;;4.85;56.41
75172;BME280;63750;52.418;20.742;2023-02-12T07:01:28;102585.80;;;4.89;56.30
75172;BME280;63750;52.418;20.742;2023-02-12T07:03:58;102588.64;;;4.94;56.57
75172;BME280;63750;52.418;20.742;2023-02-12T07:06:29;102587.80;;;4.99;56.32
75172;BME280;63750;52.418;20.742;2023-02-12T07:08:58;102588.33;;;5.04;56.37
75172;BME280;63750;52.418;20.742;2023-02-12T07:11:29;102592.70;;;5.10;56.19
75172;BME280;63750;52.418;20.742;2023-02-12T07:13:59;102594.11;;;5.16;55.89
75172;BME280;63750;52.418;20.742;2023-02-12T07:16:28;102592.16;;;5.22;56.39
75172;BME280;63750;52.418;20.742;2023-02-12T07:18:57;102587.82;;;5.26;56.38
75172;BME280;63750;52.418;20.742;2023-02-12T07:21:26;102591.23;;;5.23;55.35
75172;BME280;63750;52.418;20.742;2023-02-12T07:23:54;102593.98;;;5.25;55.11
75172;BME280;63750;52.418;20.742;2023-02-12T07:26:23;102592.59;;;5.31;55.15
75172;BME280;63750;52.418;20.742;2023-02-12T07:28:52;102591.88;;;5.36;54.68
75172;BME280;63750;52.418;20.742;2023-02-12T07:31:22;102590.66;;;5.41;55.20
75172;BME280;63750;52.418;20.742;2023-02-12T07:33:54;102594.50;;;5.43;54.79
75172;BME280;63750;52.418;20.742;2023-02-12T07:36:25;102597.02;;;5.46;54.46
75172;BME280;63750;52.418;20.742;2023-02-12T07:38:54;102597.16;;;5.42;54.49
75172;BME280;63750;52.418;20.742;2023-02-12T07:41:24;102604.33;;;5.43;54.49
75172;BME280;63750;52.418;20.742;2023-02-12T07:43:56;102610.02;;;5.47;54.15
75172;BME280;63750;52.418;20.742;2023-02-12T07:46:28;102610.68;;;5.48;54.51
75172;BME280;63750;52.418;20.742;2023-02-12T07:48:59;102615.56;;;5.49;54.52
75172;BME280;63750;52.418;20.742;2023-02-12T07:51:28;102619.64;;;5.53;54.06
75172;BME280;63750;52.418;20.742;2023-02-12T07:53:57;102619.92;;;5.55;53.97
75172;BME280;63750;52.418;20.742;2023-02-12T07:56:28;102619.98;;;5.59;54.12
75172;BME280;63750;52.418;20.742;2023-02-12T07:58:59;102623.28;;;5.60;54.18
75172;BME280;63750;52.418;20.742;2023-02-12T08:01:30;102623.26;;;5.66;53.67
75172;BME280;63750;52.418;20.742;2023-02-12T08:04:01;102628.32;;;5.73;53.53
75172;BME280;63750;52.418;20.742;2023-02-12T08:06:31;102628.46;;;5.74;53.59
75172;BME280;63750;52.418;20.742;2023-02-12T08:09:02;102629.66;;;5.75;53.63
75172;BME280;63750;52.418;20.742;2023-02-12T08:11:31;102633.86;;;5.80;53.32
75172;BME280;63750;52.418;20.742;2023-02-12T08:14:00;102641.85;;;5.78;53.05
75172;BME280;63750;52.418;20.742;2023-02-12T08:16:30;102643.84;;;5.77;53.10
75172;BME280;63750;52.418;20.742;2023-02-12T08:18:59;102647.48;;;5.83;53.19
75172;BME280;63750;52.418;20.742;2023-02-12T08:21:28;102648.00;;;5.90;52.78
75172;BME280;63750;52.418;20.742;2023-02-12T08:23:58;102645.38;;;5.94;53.03
75172;BME280;63750;52.418;20.742;2023-02-12T08:26:28;102646.05;;;6.01;52.74
75172;BME280;63750;52.418;20.742;2023-02-12T08:28:58;102647.32;;;6.10;52.66
75172;BME280;63750;52.418;20.742;2023-02-12T08:31:29;102647.95;;;6.17;52.56
75172;BME280;63750;52.418;20.742;2023-02-12T08:33:59;102643.98;;;6.24;52.67
75172;BME280;63750;52.418;20.742;2023-02-12T08:36:33;102640.70;;;6.33;52.59
75172;BME280;63750;52.418;20.742;2023-02-12T08:39:03;102635.33;;;6.35;52.09
75172;BME280;63750;52.418;20.742;2023-02-12T08:41:33;102631.39;;;6.37;52.18
75172;BME280;63750;52.418;20.742;2023-02-12T08:44:03;102628.78;;;6.41;51.88
75172;BME280;63750;52.418;20.742;2023-02-12T08:46:35;102631.02;;;6.47;51.96
75172;BME280;63750;52.418;20.742;2023-02-12T08:49:06;102637.34;;;6.57;51.77
75172;BME280;63750;52.418;20.742;2023-02-12T08:51:37;102633.25;;;6.67;51.76
75172;BME280;63750;52.418;20.742;2023-02-12T08:54:09;102633.91;;;6.79;51.46
75172;BME280;63750;52.418;20.742;2023-02-12T08:56:38;102639.06;;;6.92;51.47
75172;BME280;63750;52.418;20.742;2023-02-12T08:59:09;102643.59;;;7.06;51.38
75172;BME280;63750;52.418;20.742;2023-02-12T09:01:39;102638.54;;;7.14;50.99
75172;BME280;63750;52.418;20.742;2023-02-12T09:04:09;102638.31;;;7.24;50.96
75172;BME280;63750;52.418;20.742;2023-02-12T09:06:40;102647.43;;;7.39;50.84
75172;BME280;63750;52.418;20.742;2023-02-12T09:09:09;102655.55;;;7.52;50.55
75172;BME280;63750;52.418;20.742;2023-02-12T09:11:37;102654.08;;;7.62;50.21
75172;BME280;63750;52.418;20.742;2023-02-12T09:14:10;102652.36;;;7.65;49.90
75172;BME280;63750;52.418;20.742;2023-02-12T09:16:39;102657.93;;;7.63;49.62
75172;BME280;63750;52.418;20.742;2023-02-12T09:19:09;102666.93;;;7.67;49.61
75172;BME280;63750;52.418;20.742;2023-02-12T09:21:38;102668.90;;;7.66;49.17
75172;BME280;63750;52.418;20.742;2023-02-12T09:24:08;102668.57;;;7.79;49.48
75172;BME280;63750;52.418;20.742;2023-02-12T09:26:38;102664.84;;;7.87;49.35
75172;BME280;63750;52.418;20.742;2023-02-12T09:29:07;102669.33;;;7.98;48.95
75172;BME280;63750;52.418;20.742;2023-02-12T09:31:36;102678.66;;;8.03;48.97
75172;BME280;63750;52.418;20.742;2023-02-12T09:34:05;102678.80;;;8.04;48.66
75172;BME280;63750;52.418;20.742;2023-02-12T09:36:35;102676.15;;;8.12;48.70
75172;BME280;63750;52.418;20.742;2023-02-12T09:39:06;102672.47;;;8.20;48.54
75172;BME280;63750;52.418;20.742;2023-02-12T09:41:48;102667.48;;;8.25;48.19
75172;BME280;63750;52.418;20.742;2023-02-12T09:44:26;102672.41;;;8.34;48.20
75172;BME280;63750;52.418;20.742;2023-02-12T09:47:00;102675.09;;;8.42;48.06
75172;BME280;63750;52.418;20.742;2023-02-12T09:49:44;102671.80;;;8.48;47.93
75172;BME280;63750;52.418;20.742;2023-02-12T09:52:18;102676.23;;;8.47;47.98
75172;BME280;63750;52.418;20.742;2023-02-12T09:54:48;102678.56;;;8.55;47.91
75172;BME280;63750;52.418;20.742;2023-02-12T09:57:22;102685.63;;;8.67;47.79
75172;BME280;63750;52.418;20.742;2023-02-12T09:59:55;102682.52;;;8.69;47.30
75172;BME280;63750;52.418;20.742;2023-02-12T10:02:25;102678.17;;;8.75;47.29
75172;BME280;63750;52.418;20.742;2023-02-12T10:04:54;102678.10;;;8.85;47.21
75172;BME280;63750;52.418;20.742;2023-02-12T10:07:32;102673.14;;;8.93;47.17
75172;BME280;63750;52.418;20.742;2023-02-12T10:10:26;102673.35;;;8.96;47.21
75172;BME280;63750;52.418;20.742;2023-02-12T10:13:02;102676.31;;;9.04;47.15
75172;BME280;63750;52.418;20.742;2023-02-12T10:15:39;102686.73;;;9.05;46.64
75172;BME280;63750;52.418;20.742;2023-02-12T10:18:23;102688.77;;;9.03;46.55
75172;BME280;63750;52.418;20.742;2023-02-12T10:21:17;102691.30;;;9.09;46.77
75172;BME280;63750;52.418;20.742;2023-02-12T10:24:02;102683.20;;;9.12;46.52
75172;BME280;63750;52.418;20.742;2023-02-12T10:26:36;102675.73;;;9.24;46.56
75172;BME280;63750;52.418;20.742;2023-02-12T10:29:12;102668.98;;;9.36;45.47
75172;BME280;63750;52.418;20.742;2023-02-12T10:31:44;102667.48;;;9.53;46.04
75172;BME280;63750;52.418;20.742;2023-02-12T10:34:18;102667.11;;;9.71;46.22
75172;BME280;63750;52.418;20.742;2023-02-12T10:36:48;102669.38;;;9.89;46.28
75172;BME280;63750;52.418;20.742;2023-02-12T10:39:21;102673.07;;;10.11;46.26
75172;BME280;63750;52.418;20.742;2023-02-12T10:41:57;102676.98;;;10.21;45.40
75172;BME280;63750;52.418;20.742;2023-02-12T10:44:28;102678.33;;;10.19;44.86
75172;BME280;63750;52.418;20.742;2023-02-12T10:46:57;102679.39;;;10.15;44.95
75172;BME280;63750;52.418;20.742;2023-02-12T10:49:27;102678.40;;;10.28;44.87
75172;BME280;63750;52.418;20.742;2023-02-12T10:52:09;102675.34;;;10.36;44.94
75172;BME280;63750;52.418;20.742;2023-02-12T10:54:42;102684.51;;;10.30;44.13
75172;BME280;63750;52.418;20.742;2023-02-12T10:57:21;102676.30;;;10.45;44.79
75172;BME280;63750;52.418;20.742;2023-02-12T10:59:53;102679.71;;;10.64;44.88
75172;BME280;63750;52.418;20.742;2023-02-12T11:02:25;102681.19;;;10.73;44.31
75172;BME280;63750;52.418;20.742;2023-02-12T11:04:55;102682.16;;;10.75;44.36
75172;BME280;63750;52.418;20.742;2023-02-12T11:07:26;102679.48;;;10.71;43.50
75172;BME280;63750;52.418;20.742;2023-02-12T11:09:57;102680.42;;;10.61;43.04
75172;BME280;63750;52.418;20.742;2023-02-12T11:12:31;102674.95;;;10.53;43.42
75172;BME280;63750;52.418;20.742;2023-02-12T11:15:02;102680.19;;;10.62;43.54
75172;BME280;63750;52.418;20.742;2023-02-12T11:17:36;102677.55;;;10.71;43.61
75172;BME280;63750;52.418;20.742;2023-02-12T11:20:18;102672.38;;;10.85;43.83
75172;BME280;63750;52.418;20.742;2023-02-12T11:22:52;102671.04;;;11.00;43.79
75172;BME280;63750;52.418;20.742;2023-02-12T11:25:24;102664.02;;;11.15;43.83
75172;BME280;63750;52.418;20.742;2023-02-12T11:28:09;102662.70;;;11.38;43.47
75172;BME280;63750;52.418;20.742;2023-02-12T11:30:50;102664.67;;;11.50;42.98
75172;BME280;63750;52.418;20.742;2023-02-12T11:33:28;102662.56;;;11.50;42.78
75172;BME280;63750;52.418;20.742;2023-02-12T11:35:59;102655.11;;;11.49;42.53
75172;BME280;63750;52.418;20.742;2023-02-12T11:38:35;102653.23;;;11.39;41.49
75172;BME280;63750;52.418;20.742;2023-02-12T11:41:16;102650.00;;;11.17;42.07
75172;BME280;63750;52.418;20.742;2023-02-12T11:43:48;102651.02;;;11.12;42.26
75172;BME280;63750;52.418;20.742;2023-02-12T11:46:22;102649.98;;;11.12;42.03
75172;BME280;63750;52.418;20.742;2023-02-12T11:48:53;102647.30;;;11.31;42.21
75172;BME280;63750;52.418;20.742;2023-02-12T11:51:28;102644.70;;;11.49;42.16
75172;BME280;63750;52.418;20.742;2023-02-12T11:54:00;102643.54;;;11.50;41.45
75172;BME280;63750;52.418;20.742;2023-02-12T11:56:42;102646.64;;;11.46;41.70
75172;BME280;63750;52.418;20.742;2023-02-12T11:59:23;102650.86;;;11.37;41.45
75172;BME280;63750;52.418;20.742;2023-02-12T12:01:58;102652.45;;;11.50;41.81
75172;BME280;63750;52.418;20.742;2023-02-12T12:04:31;102653.48;;;11.66;42.05
75172;BME280;63750;52.418;20.742;2023-02-12T12:07:06;102651.27;;;11.86;41.92
75172;BME280;63750;52.418;20.742;2023-02-12T12:09:42;102643.44;;;11.92;41.59
75172;BME280;63750;52.418;20.742;2023-02-12T12:12:16;102636.89;;;12.01;41.52
75172;BME280;63750;52.418;20.742;2023-02-12T12:14:49;102623.64;;;12.05;41.49
75172;BME280;63750;52.418;20.742;2023-02-12T12:17:19;102621.55;;;11.92;40.90
75172;BME280;63750;52.418;20.742;2023-02-12T12:19:57;102622.48;;;11.74;41.21
75172;BME280;63750;52.418;20.742;2023-02-12T12:22:48;102623.88;;;11.61;40.89
75172;BME280;63750;52.418;20.742;2023-02-12T12:25:23;102623.17;;;11.46;41.30
75172;BME280;63750;52.418;20.742;2023-02-12T12:28:10;102623.30;;;11.22;41.05
75172;BME280;63750;52.418;20.742;2023-02-12T12:30:59;102626.48;;;11.19;41.82
75172;BME280;63750;52.418;20.742;2023-02-12T12:33:48;102625.45;;;11.22;41.69
75172;BME280;63750;52.418;20.742;2023-02-12T12:39:33;102620.45;;;11.53;42.14
75172;BME280;63750;52.418;20.742;2023-02-12T12:42:48;102621.34;;;11.69;41.61
75172;BME280;63750;52.418;20.742;2023-02-12T12:45:31;102622.11;;;11.77;41.97
75172;BME280;63750;52.418;20.742;2023-02-12T12:48:11;102615.14;;;11.78;41.51
75172;BME280;63750;52.418;20.742;2023-02-12T12:50:52;102614.49;;;11.83;41.38
75172;BME280;63750;52.418;20.742;2023-02-12T12:53:36;102623.23;;;11.88;41.32
75172;BME280;63750;52.418;20.742;2023-02-12T12:56:24;102619.28;;;11.98;41.18
75172;BME280;63750;52.418;20.742;2023-02-12T13:02:15;102620.65;;;11.96;41.08
75172;BME280;63750;52.418;20.742;2023-02-12T13:05:03;102614.77;;;11.99;40.97
75172;BME280;63750;52.418;20.742;2023-02-12T13:07:49;102612.84;;;11.99;40.92
75172;BME280;63750;52.418;20.742;2023-02-12T13:10:26;102607.50;;;11.96;40.93
75172;BME280;63750;52.418;20.742;2023-02-12T13:13:21;102604.16;;;11.98;40.69
75172;BME280;63750;52.418;20.742;2023-02-12T13:15:58;102603.27;;;11.96;40.62
75172;BME280;63750;52.418;20.742;2023-02-12T13:18:43;102599.48;;;11.87;40.73
75172;BME280;63750;52.418;20.742;2023-02-12T13:21:20;102601.67;;;11.89;40.74
75172;BME280;63750;52.418;20.742;2023-02-12T13:23:58;102597.72;;;11.78;40.57
75172;BME280;63750;52.418;20.742;2023-02-12T13:26:32;102597.09;;;11.64;40.64
75172;BME280;63750;52.418;20.742;2023-02-12T13:29:10;102605.15;;;11.54;40.85